createdAt,value
2024-03-13T00:00:02.469Z,1013.8
2024-03-13T00:01:02.746Z,1013.8
2024-03-13T00:03:01.846Z,1013.8
2024-03-13T00:04:02.851Z,1013.8
2024-03-13T00:05:03.640Z,1013.9
2024-03-13T00:06:02.281Z,1013.9
2024-03-13T00:07:02.730Z,1013.9
2024-03-13T00:08:02.649Z,1013.8
2024-03-13T00:09:02.467Z,1013.8
2024-03-13T00:10:02.761Z,1013.9
2024-03-13T00:11:02.963Z,1013.9
2024-03-13T00:12:01.592Z,1013.9
2024-03-13T00:13:01.785Z,1013.9
2024-03-13T00:14:02.548Z,1013.8
2024-03-13T00:15:02.415Z,1013.8
2024-03-13T00:16:02.324Z,1013.9
2024-03-13T00:17:02.355Z,1013.9
2024-03-13T00:18:02.262Z,1013.9
2024-03-13T00:19:02.440Z,1013.8
2024-03-13T00:20:02.586Z,1013.8
2024-03-13T00:21:02.335Z,1013.8
2024-03-13T00:22:02.611Z,1013.9
2024-03-13T00:23:02.691Z,1013.9
2024-03-13T00:24:02.315Z,1013.8
2024-03-13T00:25:02.503Z,1013.9
2024-03-13T00:26:02.306Z,1013.8
2024-03-13T00:27:02.246Z,1013.9
2024-03-13T00:28:02.737Z,1013.9
2024-03-13T00:29:02.678Z,1013.9
2024-03-13T00:30:02.366Z,1013.8
2024-03-13T00:31:02.482Z,1013.9
2024-03-13T00:32:02.819Z,1013.9
2024-03-13T00:33:02.743Z,1014
2024-03-13T00:34:02.854Z,1013.9
2024-03-13T00:35:02.667Z,1013.9
2024-03-13T00:36:02.426Z,1014
2024-03-13T00:37:03.171Z,1014
2024-03-13T00:38:01.847Z,1013.9
2024-03-13T00:39:02.292Z,1013.9
2024-03-13T00:40:02.332Z,1014
2024-03-13T00:41:02.116Z,1014
2024-03-13T00:42:02.240Z,1014
2024-03-13T00:43:01.889Z,1013.9
2024-03-13T00:44:02.827Z,1014
2024-03-13T00:45:02.534Z,1013.9
2024-03-13T00:46:02.912Z,1014
2024-03-13T00:48:02.707Z,1013.9
2024-03-13T00:49:02.673Z,1014
2024-03-13T00:50:02.457Z,1013.9
2024-03-13T00:51:02.812Z,1014
2024-03-13T00:52:02.536Z,1014
2024-03-13T00:53:02.921Z,1014
2024-03-13T00:54:02.582Z,1014
2024-03-13T00:55:02.847Z,1013.9
2024-03-13T00:56:02.528Z,1013.9
2024-03-13T00:57:02.677Z,1013.9
2024-03-13T00:58:02.434Z,1013.9
2024-03-13T00:59:02.967Z,1013.9
2024-03-13T01:00:02.827Z,1013.9
2024-03-13T01:01:02.136Z,1014
2024-03-13T01:02:03.229Z,1013.9
2024-03-13T01:03:01.900Z,1013.9
2024-03-13T01:04:03.187Z,1013.8
2024-03-13T01:05:01.839Z,1013.8
2024-03-13T01:06:02.977Z,1013.9
2024-03-13T01:07:01.719Z,1013.9
2024-03-13T01:08:02.547Z,1013.9
2024-03-13T01:09:03.396Z,1013.9
2024-03-13T01:10:02.079Z,1013.9
2024-03-13T01:11:02.314Z,1013.9
2024-03-13T01:12:02.526Z,1013.9
2024-03-13T01:13:02.330Z,1013.9
2024-03-13T01:14:02.137Z,1013.9
2024-03-13T01:15:01.998Z,1013.9
2024-03-13T01:16:01.932Z,1013.9
2024-03-13T01:17:01.765Z,1013.9
2024-03-13T01:18:02.581Z,1013.9
2024-03-13T01:19:02.412Z,1014
2024-03-13T01:20:02.301Z,1014
2024-03-13T01:21:02.023Z,1013.9
2024-03-13T01:22:01.892Z,1014
2024-03-13T01:23:01.735Z,1014
2024-03-13T01:24:03.074Z,1013.9
2024-03-13T01:25:01.960Z,1013.9
2024-03-13T01:26:01.708Z,1013.9
2024-03-13T01:27:01.957Z,1014
2024-03-13T01:28:02.273Z,1014.1
2024-03-13T01:29:01.925Z,1014
2024-03-13T01:30:03.439Z,1013.9
2024-03-13T01:31:02.299Z,1013.9
2024-03-13T01:32:02.621Z,1014
2024-03-13T01:33:02.317Z,1014
2024-03-13T01:34:02.102Z,1014
2024-03-13T01:35:02.089Z,1014
2024-03-13T01:36:01.795Z,1013.9
2024-03-13T01:37:02.114Z,1014
2024-03-13T01:38:01.767Z,1014
2024-03-13T01:39:02.259Z,1014
2024-03-13T01:40:02.100Z,1013.9
2024-03-13T01:41:02.050Z,1014
2024-03-13T01:42:02.213Z,1014
2024-03-13T01:43:01.939Z,1014
2024-03-13T01:44:03.077Z,1014.1
2024-03-13T01:45:01.697Z,1014
2024-03-13T01:46:02.595Z,1014
2024-03-13T01:47:02.571Z,1014.1
2024-03-13T01:48:03.044Z,1014.1
2024-03-13T01:49:01.829Z,1014
2024-03-13T01:50:02.757Z,1014
2024-03-13T01:51:02.571Z,1014
2024-03-13T01:52:02.407Z,1014
2024-03-13T01:53:02.425Z,1014.1
2024-03-13T01:54:02.033Z,1014
2024-03-13T01:55:02.662Z,1014.1
2024-03-13T01:56:02.523Z,1014.1
2024-03-13T01:57:02.358Z,1014.1
2024-03-13T01:58:02.349Z,1014.1
2024-03-13T01:59:02.085Z,1014.1
2024-03-13T02:00:02.032Z,1014.1
2024-03-13T02:01:02.487Z,1014.1
2024-03-13T02:02:02.301Z,1014
2024-03-13T02:03:02.103Z,1014.1
2024-03-13T02:04:02.040Z,1014
2024-03-13T02:05:01.887Z,1014
2024-03-13T02:06:03.095Z,1014.1
2024-03-13T02:07:01.982Z,1014
2024-03-13T02:08:01.590Z,1014.1
2024-03-13T02:09:01.683Z,1014.1
2024-03-13T02:10:02.936Z,1014
2024-03-13T02:11:01.876Z,1014
2024-03-13T02:12:03.825Z,1014.1
2024-03-13T02:13:02.545Z,1014.1
2024-03-13T02:14:02.646Z,1014.1
2024-03-13T02:15:02.283Z,1014.1
2024-03-13T02:16:02.192Z,1014
2024-03-13T02:18:08.876Z,1014
2024-03-13T02:19:01.970Z,1014
2024-03-13T02:20:01.910Z,1014
2024-03-13T02:21:01.906Z,1014
2024-03-13T02:22:03.179Z,1014
2024-03-13T02:23:01.832Z,1014
2024-03-13T02:24:02.699Z,1014
2024-03-13T02:25:02.572Z,1014
2024-03-13T02:26:02.369Z,1014
2024-03-13T02:27:02.453Z,1014
2024-03-13T02:28:02.312Z,1014
2024-03-13T02:29:02.612Z,1014
2024-03-13T02:30:02.382Z,1014
2024-03-13T02:31:03.721Z,1013.9
2024-03-13T02:33:02.266Z,1014
2024-03-13T02:34:02.028Z,1014
2024-03-13T02:35:02.073Z,1014
2024-03-13T02:36:01.871Z,1014
2024-03-13T02:37:03.112Z,1014
2024-03-13T02:38:02.294Z,1014
2024-03-13T02:39:02.177Z,1014
2024-03-13T02:40:02.513Z,1014.1
2024-03-13T02:41:02.347Z,1014
2024-03-13T02:42:01.978Z,1014
2024-03-13T02:43:02.239Z,1014
2024-03-13T02:44:01.869Z,1014
2024-03-13T02:45:02.361Z,1014
2024-03-13T02:46:02.068Z,1014
2024-03-13T02:47:02.125Z,1014
2024-03-13T02:48:02.125Z,1013.9
2024-03-13T02:49:01.978Z,1014
2024-03-13T02:50:01.767Z,1014
2024-03-13T02:51:01.649Z,1014
2024-03-13T02:52:03.283Z,1014
2024-03-13T02:53:01.950Z,1013.9
2024-03-13T02:54:02.658Z,1013.9
2024-03-13T02:55:01.856Z,1013.9
2024-03-13T02:56:03.115Z,1014
2024-03-13T02:57:01.759Z,1014
2024-03-13T02:58:03.582Z,1014
2024-03-13T02:59:02.324Z,1014
2024-03-13T03:00:02.754Z,1013.9
2024-03-13T03:01:03.055Z,1013.9
2024-03-13T03:02:08.309Z,1014
2024-03-13T03:03:02.023Z,1014
2024-03-13T03:04:02.221Z,1014
2024-03-13T03:05:01.873Z,1014
2024-03-13T03:06:02.730Z,1014
2024-03-13T03:07:02.882Z,1014
2024-03-13T03:08:02.738Z,1014
2024-03-13T03:09:02.526Z,1014.1
2024-03-13T03:10:02.897Z,1014
2024-03-13T03:11:04.312Z,1014
2024-03-13T03:12:02.017Z,1014
2024-03-13T03:13:02.302Z,1014.1
2024-03-13T03:14:02.002Z,1014.1
2024-03-13T03:15:02.519Z,1014.1
2024-03-13T03:16:02.997Z,1014.1
2024-03-13T03:18:02.909Z,1014.1
2024-03-13T03:19:02.730Z,1014
2024-03-13T03:20:02.547Z,1014
2024-03-13T03:21:02.362Z,1014
2024-03-13T03:22:02.744Z,1014
2024-03-13T03:23:02.557Z,1014.1
2024-03-13T03:24:02.239Z,1014
2024-03-13T03:25:02.641Z,1014
2024-03-13T03:26:02.630Z,1014
2024-03-13T03:27:02.439Z,1014
2024-03-13T03:28:02.417Z,1014.1
2024-03-13T03:29:02.099Z,1014
2024-03-13T03:30:01.829Z,1014.1
2024-03-13T03:31:01.864Z,1014.1
2024-03-13T03:32:02.052Z,1014.1
2024-03-13T03:33:03.458Z,1014.1
2024-03-13T03:34:02.394Z,1014.1
2024-03-13T03:35:02.156Z,1014.1
2024-03-13T03:36:01.984Z,1014.1
2024-03-13T03:37:01.848Z,1014.2
2024-03-13T03:38:02.943Z,1014.2
2024-03-13T03:39:02.640Z,1014.2
2024-03-13T03:40:02.838Z,1014.1
2024-03-13T03:41:02.574Z,1014.1
2024-03-13T03:42:02.211Z,1014.1
2024-03-13T03:43:02.413Z,1014.2
2024-03-13T03:44:02.070Z,1014.1
2024-03-13T03:45:02.620Z,1014.2
2024-03-13T03:46:02.498Z,1014.2
2024-03-13T03:48:13.251Z,1014.2
2024-03-13T03:49:02.137Z,1014.2
2024-03-13T03:50:02.568Z,1014.2
2024-03-13T03:51:03.183Z,1014.3
2024-03-13T03:52:01.933Z,1014.2
2024-03-13T03:53:02.008Z,1014.2
2024-03-13T03:54:01.687Z,1014.2
2024-03-13T03:55:01.910Z,1014.2
2024-03-13T03:56:02.817Z,1014.2
2024-03-13T03:57:02.613Z,1014.2
2024-03-13T03:58:02.585Z,1014.2
2024-03-13T03:59:02.651Z,1014.2
2024-03-13T04:00:02.466Z,1014.3
2024-03-13T04:01:02.929Z,1014.3
2024-03-13T04:02:03.433Z,1014.2
2024-03-13T04:03:02.205Z,1014.2
2024-03-13T04:04:02.423Z,1014.3
2024-03-13T04:05:02.042Z,1014.2
2024-03-13T04:06:01.757Z,1014.3
2024-03-13T04:07:01.964Z,1014.3
2024-03-13T04:08:01.689Z,1014.3
2024-03-13T04:09:01.699Z,1014.3
2024-03-13T04:10:02.634Z,1014.3
2024-03-13T04:11:03.610Z,1014.3
2024-03-13T04:12:02.405Z,1014.3
2024-03-13T04:13:02.622Z,1014.3
2024-03-13T04:14:02.464Z,1014.3
2024-03-13T04:15:02.325Z,1014.3
2024-03-13T04:16:02.130Z,1014.3
2024-03-13T04:17:02.275Z,1014.3
2024-03-13T04:18:02.027Z,1014.4
2024-03-13T04:19:02.191Z,1014.3
2024-03-13T04:20:01.964Z,1014.4
2024-03-13T04:21:01.914Z,1014.3
2024-03-13T04:22:02.972Z,1014.4
2024-03-13T04:23:01.640Z,1014.3
2024-03-13T04:24:02.670Z,1014.3
2024-03-13T04:25:02.546Z,1014.4
2024-03-13T04:26:02.968Z,1014.3
2024-03-13T04:27:01.559Z,1014.4
2024-03-13T04:28:02.727Z,1014.3
2024-03-13T04:29:02.357Z,1014.3
2024-03-13T04:30:02.536Z,1014.3
2024-03-13T04:31:02.420Z,1014.4
2024-03-13T04:33:02.202Z,1014.4
2024-03-13T04:34:02.375Z,1014.4
2024-03-13T04:35:02.019Z,1014.4
2024-03-13T04:36:01.923Z,1014.4
2024-03-13T04:37:01.849Z,1014.5
2024-03-13T04:38:02.951Z,1014.4
2024-03-13T04:39:02.615Z,1014.5
2024-03-13T04:40:02.930Z,1014.5
2024-03-13T04:41:02.853Z,1014.4
2024-03-13T04:42:02.558Z,1014.5
2024-03-13T04:43:02.747Z,1014.5
2024-03-13T04:44:02.437Z,1014.5
2024-03-13T04:45:02.944Z,1014.6
2024-03-13T04:46:01.777Z,1014.5
2024-03-13T04:47:02.094Z,1014.5
2024-03-13T04:48:02.084Z,1014.5
2024-03-13T04:49:01.790Z,1014.5
2024-03-13T04:50:02.676Z,1014.6
2024-03-13T04:51:02.439Z,1014.5
2024-03-13T04:52:02.846Z,1014.5
2024-03-13T04:53:02.621Z,1014.5
2024-03-13T04:54:02.221Z,1014.5
2024-03-13T04:55:02.477Z,1014.6
2024-03-13T04:56:02.252Z,1014.6
2024-03-13T04:57:02.234Z,1014.6
2024-03-13T04:58:02.126Z,1014.6
2024-03-13T04:59:01.893Z,1014.6
2024-03-13T05:00:02.798Z,1014.6
2024-03-13T05:01:02.792Z,1014.7
2024-03-13T05:03:02.098Z,1014.7
2024-03-13T05:04:02.010Z,1014.7
2024-03-13T05:05:01.777Z,1014.6
2024-03-13T05:06:02.888Z,1014.7
2024-03-13T05:07:02.588Z,1014.7
2024-03-13T05:08:04.002Z,1014.7
2024-03-13T05:09:01.976Z,1014.7
2024-03-13T05:10:02.165Z,1014.7
2024-03-13T05:11:02.082Z,1014.8
2024-03-13T05:12:02.155Z,1014.7
2024-03-13T05:13:01.944Z,1014.7
2024-03-13T05:14:03.028Z,1014.8
2024-03-13T05:15:01.678Z,1014.8
2024-03-13T05:16:03.056Z,1014.8
2024-03-13T05:18:02.458Z,1014.9
2024-03-13T05:19:02.597Z,1014.8
2024-03-13T05:20:02.507Z,1014.8
2024-03-13T05:21:02.313Z,1014.9
2024-03-13T05:22:02.877Z,1014.8
2024-03-13T05:23:02.559Z,1014.9
2024-03-13T05:24:02.190Z,1014.9
2024-03-13T05:25:02.772Z,1014.8
2024-03-13T05:26:02.450Z,1014.8
2024-03-13T05:27:02.612Z,1014.8
2024-03-13T05:28:02.462Z,1014.9
2024-03-13T05:29:02.496Z,1014.9
2024-03-13T05:30:02.815Z,1014.9
2024-03-13T05:31:02.606Z,1014.9
2024-03-13T05:33:02.182Z,1014.9
2024-03-13T05:34:01.960Z,1014.9
2024-03-13T05:35:02.532Z,1014.8
2024-03-13T05:36:02.874Z,1014.8
2024-03-13T05:37:02.664Z,1014.9
2024-03-13T05:38:03.060Z,1014.9
2024-03-13T05:39:01.719Z,1014.9
2024-03-13T05:40:02.851Z,1014.9
2024-03-13T05:41:03.021Z,1015
2024-03-13T05:42:01.638Z,1015
2024-03-13T05:43:03.412Z,1015
2024-03-13T05:44:02.101Z,1015.1
2024-03-13T05:45:03.255Z,1015
2024-03-13T05:46:02.065Z,1015
2024-03-13T05:47:02.208Z,1015.1
2024-03-13T05:48:02.436Z,1015.1
2024-03-13T05:49:02.331Z,1015.1
2024-03-13T05:50:02.088Z,1015.1
2024-03-13T05:51:02.117Z,1015
2024-03-13T05:52:01.832Z,1015.1
2024-03-13T05:53:02.595Z,1015.1
2024-03-13T05:54:02.256Z,1015.1
2024-03-13T05:55:03.285Z,1015.1
2024-03-13T05:56:01.921Z,1015.1
2024-03-13T05:57:02.225Z,1015.1
2024-03-13T05:58:01.954Z,1015.1
2024-03-13T05:59:02.368Z,1015.1
2024-03-13T06:00:03.935Z,1015.1
2024-03-13T06:01:01.837Z,1015.1
2024-03-13T06:02:02.684Z,1015.1
2024-03-13T06:03:02.904Z,1015.1
2024-03-13T06:04:02.726Z,1015.1
2024-03-13T06:05:02.777Z,1015.2
2024-03-13T06:06:02.432Z,1015.2
2024-03-13T06:07:03.029Z,1015.2
2024-03-13T06:08:01.807Z,1015.2
2024-03-13T06:09:02.104Z,1015.1
2024-03-13T06:10:01.821Z,1015.1
2024-03-13T06:11:01.946Z,1015.2
2024-03-13T06:12:01.623Z,1015.2
2024-03-13T06:13:01.749Z,1015.2
2024-03-13T06:14:02.977Z,1015.2
2024-03-13T06:15:01.591Z,1015.2
2024-03-13T06:16:02.572Z,1015.2
2024-03-13T06:17:02.769Z,1015.2
2024-03-13T06:18:02.584Z,1015.3
2024-03-13T06:19:02.719Z,1015.3
2024-03-13T06:20:02.566Z,1015.2
2024-03-13T06:21:02.433Z,1015.3
2024-03-13T06:22:02.846Z,1015.3
2024-03-13T06:23:02.512Z,1015.3
2024-03-13T06:24:02.438Z,1015.3
2024-03-13T06:25:02.964Z,1015.3
2024-03-13T06:26:01.645Z,1015.3
2024-03-13T06:27:01.872Z,1015.3
2024-03-13T06:28:01.685Z,1015.3
2024-03-13T06:29:02.770Z,1015.3
2024-03-13T06:30:02.750Z,1015.3
2024-03-13T06:31:02.696Z,1015.3
2024-03-13T06:33:02.740Z,1015.3
2024-03-13T06:34:02.573Z,1015.3
2024-03-13T06:35:02.779Z,1015.3
2024-03-13T06:36:02.711Z,1015.3
2024-03-13T06:37:02.995Z,1015.3
2024-03-13T06:38:01.682Z,1015.3
2024-03-13T06:39:01.898Z,1015.3
2024-03-13T06:40:03.086Z,1015.4
2024-03-13T06:41:01.800Z,1015.4
2024-03-13T06:42:02.583Z,1015.4
2024-03-13T06:43:02.562Z,1015.4
2024-03-13T06:44:02.276Z,1015.4
2024-03-13T06:45:02.382Z,1015.4
2024-03-13T06:46:02.147Z,1015.4
2024-03-13T06:47:02.454Z,1015.5
2024-03-13T06:48:02.344Z,1015.5
2024-03-13T06:49:02.532Z,1015.5
2024-03-13T06:50:02.210Z,1015.5
2024-03-13T06:51:02.230Z,1015.5
2024-03-13T06:52:02.020Z,1015.6
2024-03-13T06:53:02.302Z,1015.5
2024-03-13T06:54:01.937Z,1015.5
2024-03-13T06:55:02.527Z,1015.5
2024-03-13T06:56:02.239Z,1015.5
2024-03-13T06:57:02.167Z,1015.6
2024-03-13T06:58:02.605Z,1015.5
2024-03-13T06:59:02.418Z,1015.5
2024-03-13T07:00:03.022Z,1015.5
2024-03-13T07:01:02.638Z,1015.5
2024-03-13T07:02:02.503Z,1015.6
2024-03-13T07:03:02.246Z,1015.6
2024-03-13T07:04:02.047Z,1015.5
2024-03-13T07:05:01.871Z,1015.6
2024-03-13T07:06:02.716Z,1015.5
2024-03-13T07:07:02.729Z,1015.6
2024-03-13T07:08:02.756Z,1015.5
2024-03-13T07:09:02.530Z,1015.5
2024-03-13T07:10:02.472Z,1015.5
2024-03-13T07:11:02.373Z,1015.6
2024-03-13T07:12:02.067Z,1015.6
2024-03-13T07:13:02.255Z,1015.6
2024-03-13T07:14:01.889Z,1015.5
2024-03-13T07:15:01.872Z,1015.6
2024-03-13T07:16:02.657Z,1015.6
2024-03-13T07:17:02.461Z,1015.5
2024-03-13T07:18:02.486Z,1015.5
2024-03-13T07:19:02.358Z,1015.6
2024-03-13T07:20:02.090Z,1015.6
2024-03-13T07:21:02.007Z,1015.6
2024-03-13T07:22:01.794Z,1015.6
2024-03-13T07:23:01.671Z,1015.6
2024-03-13T07:24:02.329Z,1015.6
2024-03-13T07:25:02.422Z,1015.6
2024-03-13T07:26:02.137Z,1015.6
2024-03-13T07:27:02.185Z,1015.6
2024-03-13T07:28:01.949Z,1015.7
2024-03-13T07:29:01.991Z,1015.6
2024-03-13T07:30:01.712Z,1015.6
2024-03-13T07:31:01.766Z,1015.7
2024-03-13T07:32:03.253Z,1015.7
2024-03-13T07:33:02.040Z,1015.7
2024-03-13T07:34:02.340Z,1015.7
2024-03-13T07:35:01.991Z,1015.7
2024-03-13T07:36:01.731Z,1015.7
2024-03-13T07:37:01.681Z,1015.7
2024-03-13T07:38:02.882Z,1015.7
2024-03-13T07:39:02.694Z,1015.7
2024-03-13T07:40:03.098Z,1015.8
2024-03-13T07:41:01.828Z,1015.7
2024-03-13T07:42:02.539Z,1015.8
2024-03-13T07:43:02.568Z,1015.8
2024-03-13T07:44:02.437Z,1015.8
2024-03-13T07:45:02.250Z,1015.7
2024-03-13T07:46:02.148Z,1015.7
2024-03-13T07:47:01.977Z,1015.7
2024-03-13T07:48:01.824Z,1015.7
2024-03-13T07:49:01.730Z,1015.7
2024-03-13T07:50:02.653Z,1015.8
2024-03-13T07:51:02.475Z,1015.8
2024-03-13T07:52:02.139Z,1015.8
2024-03-13T07:53:02.347Z,1015.8
2024-03-13T07:54:01.973Z,1015.8
2024-03-13T07:55:02.290Z,1015.8
2024-03-13T07:56:04.496Z,1015.8
2024-03-13T07:57:02.136Z,1015.8
2024-03-13T07:58:02.172Z,1015.8
2024-03-13T07:59:01.875Z,1015.8
2024-03-13T08:00:03.084Z,1015.9
2024-03-13T08:01:02.279Z,1015.9
2024-03-13T08:02:02.280Z,1015.8
2024-03-13T08:03:02.084Z,1015.9
2024-03-13T08:04:01.773Z,1015.9
2024-03-13T08:05:01.804Z,1015.9
2024-03-13T09:06:08.668Z,1016
2024-03-13T09:07:03.206Z,1016
2024-03-13T09:08:01.886Z,1016
2024-03-13T09:09:01.944Z,1016
2024-03-13T09:10:03.132Z,1016
2024-03-13T09:11:02.018Z,1016
2024-03-13T09:12:02.609Z,1016
2024-03-13T09:13:03.277Z,1016.1
2024-03-13T09:14:01.863Z,1016.2
2024-03-13T09:15:02.226Z,1016.1
2024-03-13T09:16:02.004Z,1016.2
2024-03-13T09:17:02.218Z,1016.1
2024-03-13T09:18:02.246Z,1016.2
2024-03-13T09:19:02.331Z,1016.1
2024-03-13T09:20:02.142Z,1016.1
2024-03-13T09:21:02.905Z,1016.1
2024-03-13T09:22:07.971Z,1016.2
2024-03-13T09:23:01.919Z,1016.2
2024-03-13T09:24:02.863Z,1016.3
2024-03-13T09:25:02.551Z,1016.2
2024-03-13T09:26:02.387Z,1016.2
2024-03-13T09:27:02.469Z,1016.2
2024-03-13T09:28:02.086Z,1016.3
2024-03-13T09:29:02.306Z,1016.3
2024-03-13T09:30:02.314Z,1016.3
2024-03-13T09:31:02.167Z,1016.3
2024-03-13T09:32:01.783Z,1016.3
2024-03-13T09:33:02.142Z,1016.4
2024-03-13T09:34:02.130Z,1016.4
2024-03-13T09:35:02.319Z,1016.4
2024-03-13T09:36:02.649Z,1016.4
2024-03-13T09:37:02.293Z,1016.4
2024-03-13T09:38:02.311Z,1016.4
2024-03-13T09:39:02.513Z,1016.3
2024-03-13T09:40:02.239Z,1016.4
2024-03-13T09:41:02.508Z,1016.4
2024-03-13T09:42:02.689Z,1016.5
2024-03-13T09:43:02.332Z,1016.4
2024-03-13T09:44:02.137Z,1016.5
2024-03-13T09:45:02.098Z,1016.5
2024-03-13T09:46:02.204Z,1016.5
2024-03-13T09:48:02.752Z,1016.5
2024-03-13T09:49:03.087Z,1016.5
2024-03-13T09:50:02.354Z,1016.5
2024-03-13T09:51:11.373Z,1016.6
2024-03-13T09:52:02.710Z,1016.5
2024-03-13T09:53:02.989Z,1016.6
2024-03-13T09:54:01.869Z,1016.5
2024-03-13T09:55:01.844Z,1016.6
2024-03-13T09:56:02.693Z,1016.6
2024-03-13T09:57:02.605Z,1016.5
2024-03-13T09:58:02.450Z,1016.6
2024-03-13T09:59:02.494Z,1016.6
2024-03-13T10:00:03.012Z,1016.6
2024-03-13T10:01:02.308Z,1016.5
2024-03-13T10:02:01.955Z,1016.5
2024-03-13T10:03:02.207Z,1016.6
2024-03-13T10:04:01.854Z,1016.6
2024-03-13T10:05:02.122Z,1016.6
2024-03-13T10:06:02.051Z,1016.6
2024-03-13T10:07:01.916Z,1016.6
2024-03-13T10:08:02.739Z,1016.6
2024-03-13T10:09:02.720Z,1016.5
2024-03-13T10:10:02.559Z,1016.6
2024-03-13T10:11:02.682Z,1016.6
2024-03-13T10:12:02.605Z,1016.6
2024-03-13T10:13:02.881Z,1016.6
2024-03-13T10:14:02.601Z,1016.7
2024-03-13T10:15:03.260Z,1016.6
2024-03-13T10:16:01.976Z,1016.7
2024-03-13T10:17:05.678Z,1016.6
2024-03-13T10:18:03.543Z,1016.7
2024-03-13T10:19:02.126Z,1016.6
2024-03-13T10:20:01.899Z,1016.6
2024-03-13T10:21:02.036Z,1016.7
2024-03-13T10:22:01.885Z,1016.6
2024-03-13T10:23:01.691Z,1016.7
2024-03-13T10:24:08.065Z,1016.7
2024-03-13T10:25:01.850Z,1016.6
2024-03-13T10:26:02.699Z,1016.6
2024-03-13T10:27:02.722Z,1016.6
2024-03-13T10:28:02.881Z,1016.6
2024-03-13T10:29:02.561Z,1016.7
2024-03-13T10:30:02.426Z,1016.6
2024-03-13T10:31:02.326Z,1016.7
2024-03-13T10:32:02.332Z,1016.7
2024-03-13T10:33:02.502Z,1016.7
2024-03-13T10:34:02.568Z,1016.7
2024-03-13T10:35:03.832Z,1016.6
2024-03-13T10:36:02.597Z,1016.7
2024-03-13T10:37:15.587Z,1016.7
2024-03-13T10:38:02.591Z,1016.7
2024-03-13T10:39:02.873Z,1016.7
2024-03-13T10:40:02.551Z,1016.7
2024-03-13T10:41:03.053Z,1016.7
2024-03-13T10:42:01.848Z,1016.7
2024-03-13T10:43:02.417Z,1016.7
2024-03-13T10:44:02.480Z,1016.6
2024-03-13T10:45:02.239Z,1016.6
2024-03-13T10:46:01.993Z,1016.7
2024-03-13T10:47:03.487Z,1016.6
2024-03-13T10:48:02.530Z,1016.7
2024-03-13T10:49:02.580Z,1016.7
2024-03-13T10:50:02.277Z,1016.6
2024-03-13T10:51:02.727Z,1016.7
2024-03-13T10:52:02.389Z,1016.7
2024-03-13T10:53:03.764Z,1016.6
2024-03-13T10:54:02.570Z,1016.7
2024-03-13T10:55:02.530Z,1016.6
2024-03-13T10:56:02.179Z,1016.6
2024-03-13T10:57:02.569Z,1016.7
2024-03-13T10:58:02.276Z,1016.6
2024-03-13T10:59:10.702Z,1016.7
2024-03-13T11:00:02.866Z,1016.7
2024-03-13T11:01:02.679Z,1016.7
2024-03-13T11:03:02.122Z,1016.6
2024-03-13T11:04:01.913Z,1016.6
2024-03-13T11:05:03.678Z,1016.6
2024-03-13T11:06:02.516Z,1016.6
2024-03-13T11:07:02.336Z,1016.6
2024-03-13T11:08:01.975Z,1016.6
2024-03-13T11:09:02.545Z,1016.6
2024-03-13T11:10:02.272Z,1016.6
2024-03-13T11:11:22.884Z,1016.5
2024-03-13T11:12:02.314Z,1016.6
2024-03-13T11:13:02.123Z,1016.5
2024-03-13T11:14:01.793Z,1016.6
2024-03-13T11:15:02.179Z,1016.6
2024-03-13T11:16:01.857Z,1016.6
2024-03-13T11:17:01.614Z,1016.6
2024-03-13T11:18:02.838Z,1016.6
2024-03-13T11:19:02.120Z,1016.6
2024-03-13T11:20:01.864Z,1016.6
2024-03-13T11:21:01.967Z,1016.6
2024-03-13T11:22:06.066Z,1016.6
2024-03-13T11:23:01.797Z,1016.6
2024-03-13T11:24:02.615Z,1016.6
2024-03-13T11:25:02.460Z,1016.6
2024-03-13T11:26:02.064Z,1016.5
2024-03-13T11:27:02.234Z,1016.5
2024-03-13T11:28:01.873Z,1016.6
2024-03-13T11:29:01.854Z,1016.6
2024-03-13T11:30:02.805Z,1016.6
2024-03-13T11:31:02.656Z,1016.6
2024-03-13T11:32:02.305Z,1016.6
2024-03-13T11:33:02.530Z,1016.5
2024-03-13T11:34:02.456Z,1016.5
2024-03-13T11:35:02.190Z,1016.5
2024-03-13T11:36:02.137Z,1016.5
2024-03-13T11:37:02.009Z,1016.5
2024-03-13T11:38:03.486Z,1016.5
2024-03-13T11:39:02.259Z,1016.5
2024-03-13T11:40:01.970Z,1016.5
2024-03-13T11:41:01.957Z,1016.5
2024-03-13T11:42:01.938Z,1016.5
2024-03-13T11:43:01.668Z,1016.5
2024-03-13T11:44:02.349Z,1016.5
2024-03-13T11:45:02.572Z,1016.5
2024-03-13T11:46:02.247Z,1016.4
2024-03-13T11:47:02.221Z,1016.4
2024-03-13T11:48:02.340Z,1016.5
2024-03-13T11:49:02.725Z,1016.4
2024-03-13T11:50:02.540Z,1016.4
2024-03-13T11:51:03.086Z,1016.5
2024-03-13T11:52:01.818Z,1016.4
2024-03-13T11:53:01.832Z,1016.4
2024-03-13T11:54:02.882Z,1016.5
2024-03-13T11:55:01.668Z,1016.4
2024-03-13T11:56:02.295Z,1016.4
2024-03-13T11:57:02.496Z,1016.4
2024-03-13T11:58:02.196Z,1016.4
2024-03-13T11:59:02.176Z,1016.5
2024-03-13T12:00:03.043Z,1016.5
2024-03-13T12:01:02.018Z,1016.4
2024-03-13T12:02:02.043Z,1016.4
2024-03-13T12:03:02.068Z,1016.4
2024-03-13T12:04:01.704Z,1016.4
2024-03-13T12:05:01.739Z,1016.4
2024-03-13T12:06:02.517Z,1016.4
2024-03-13T12:07:02.412Z,1016.4
2024-03-13T12:08:02.132Z,1016.4
2024-03-13T12:09:02.131Z,1016.4
2024-03-13T12:10:01.854Z,1016.4
2024-03-13T12:11:01.976Z,1016.4
2024-03-13T12:12:02.058Z,1016.4
2024-03-13T12:13:01.674Z,1016.4
2024-03-13T12:14:02.316Z,1016.3
2024-03-13T12:15:02.791Z,1016.4
2024-03-13T12:16:02.454Z,1016.4
2024-03-13T12:17:02.213Z,1016.4
2024-03-13T12:18:02.321Z,1016.3
2024-03-13T12:19:02.272Z,1016.3
2024-03-13T12:20:01.893Z,1016.3
2024-03-13T12:21:02.031Z,1016.3
2024-03-13T12:22:01.917Z,1016.3
2024-03-13T12:23:01.784Z,1016.3
2024-03-13T12:24:02.573Z,1016.4
2024-03-13T12:25:02.412Z,1016.4
2024-03-13T12:26:02.108Z,1016.4
2024-03-13T12:27:02.231Z,1016.4
2024-03-13T12:28:01.930Z,1016.4
2024-03-13T12:29:01.908Z,1016.4
2024-03-13T12:30:02.859Z,1016.4
2024-03-13T12:31:02.672Z,1016.4
2024-03-13T12:33:02.215Z,1016.4
2024-03-13T12:34:03.148Z,1016.4
2024-03-13T12:35:01.922Z,1016.3
2024-03-13T12:36:03.025Z,1016.3
2024-03-13T12:37:01.817Z,1016.4
2024-03-13T12:38:02.554Z,1016.4
2024-03-13T12:39:02.737Z,1016.4
2024-03-13T12:40:02.567Z,1016.4
2024-03-13T12:41:02.406Z,1016.4
2024-03-13T12:42:02.202Z,1016.4
2024-03-13T12:43:02.233Z,1016.4
2024-03-13T12:44:01.924Z,1016.4
2024-03-13T12:45:02.262Z,1016.4
2024-03-13T12:46:01.971Z,1016.4
2024-03-13T12:47:01.902Z,1016.4
2024-03-13T12:48:03.396Z,1016.4
2024-03-13T12:49:02.407Z,1016.5
2024-03-13T12:50:02.469Z,1016.3
2024-03-13T12:51:03.066Z,1016.4
2024-03-13T12:52:01.738Z,1016.3
2024-03-13T12:53:02.015Z,1016.4
2024-03-13T12:54:01.791Z,1016.4
2024-03-13T12:55:01.886Z,1016.4
2024-03-13T12:56:02.972Z,1016.4
2024-03-13T12:57:01.807Z,1016.3
2024-03-13T12:58:02.710Z,1016.3
2024-03-13T12:59:02.539Z,1016.3
2024-03-13T13:00:02.357Z,1016.3
2024-03-13T13:01:02.109Z,1016.2
2024-03-13T13:02:01.827Z,1016.3
2024-03-13T13:03:02.745Z,1016.3
2024-03-13T13:04:02.884Z,1016.3
2024-03-13T13:05:02.548Z,1016.3
2024-03-13T13:06:02.438Z,1016.3
2024-03-13T13:07:02.358Z,1016.3
2024-03-13T13:08:02.037Z,1016.3
2024-03-13T13:09:02.713Z,1016.2
2024-03-13T13:10:02.550Z,1016.3
2024-03-13T13:11:02.755Z,1016.3
2024-03-13T13:12:02.803Z,1016.3
2024-03-13T13:13:02.476Z,1016.4
2024-03-13T13:14:02.355Z,1016.3
2024-03-13T13:15:02.544Z,1016.3
2024-03-13T13:16:02.258Z,1016.4
2024-03-13T13:18:02.801Z,1016.4
2024-03-13T13:19:02.872Z,1016.3
2024-03-13T13:20:03.198Z,1016.4
2024-03-13T13:21:01.887Z,1016.3
2024-03-13T13:22:02.509Z,1016.3
2024-03-13T13:23:02.596Z,1016.3
2024-03-13T13:24:02.478Z,1016.3
2024-03-13T13:25:02.439Z,1016.3
2024-03-13T13:26:02.107Z,1016.3
2024-03-13T13:27:02.447Z,1016.3
2024-03-13T13:28:02.561Z,1016.3
2024-03-13T13:29:09.439Z,1016.3
2024-03-13T13:30:02.362Z,1016.3
2024-03-13T13:31:02.652Z,1016.3
2024-03-13T13:33:02.402Z,1016.2
2024-03-13T13:34:02.700Z,1016.3
2024-03-13T13:35:02.394Z,1016.2
2024-03-13T13:36:02.301Z,1016.2
2024-03-13T13:37:02.027Z,1016.3
2024-03-13T13:38:02.101Z,1016.2
2024-03-13T13:39:01.854Z,1016.2
2024-03-13T13:40:02.694Z,1016.2
2024-03-13T13:41:02.486Z,1016.2
2024-03-13T13:42:02.435Z,1016.3
2024-03-13T13:43:02.702Z,1016.2
2024-03-13T13:44:02.402Z,1016.3
2024-03-13T13:45:02.776Z,1016.2
2024-03-13T13:46:02.719Z,1016.3
2024-03-13T13:48:02.005Z,1016.3
2024-03-13T13:49:09.428Z,1016.2
2024-03-13T13:50:02.247Z,1016.2
2024-03-13T13:51:03.309Z,1016.2
2024-03-13T13:52:01.965Z,1016.2